sensor_id;sensor_type;location;lat;lon;timestamp;P1;durP1;ratioP1;P2;durP2;ratioP2
39654;SDS011;25336;59.944;11.010;2023-08-31T00:02:09;6.85;;;2.15;;
39654;SDS011;25336;59.944;11.010;2023-08-31T00:04:35;2.97;;;2.00;;
39654;SDS011;25336;59.944;11.010;2023-08-31T00:07:01;2.08;;;1.98;;
39654;SDS011;25336;59.944;11.010;2023-08-31T00:09:30;4.15;;;2.28;;
39654;SDS011;25336;59.944;11.010;2023-08-31T00:11:56;3.72;;;2.03;;
39654;SDS011;25336;59.944;11.010;2023-08-31T00:14:22;2.92;;;2.10;;
39654;SDS011;25336;59.944;11.010;2023-08-31T00:16:51;2.15;;;1.90;;
39654;SDS011;25336;59.944;11.010;2023-08-31T00:19:17;4.95;;;2.10;;
39654;SDS011;25336;59.944;11.010;2023-08-31T00:21:42;6.63;;;2.47;;
39654;SDS011;25336;59.944;11.010;2023-08-31T00:24:08;5.57;;;2.70;;
39654;SDS011;25336;59.944;11.010;2023-08-31T00:26:35;2.55;;;2.00;;
39654;SDS011;25336;59.944;11.010;2023-08-31T00:29:05;2.97;;;2.28;;
39654;SDS011;25336;59.944;11.010;2023-08-31T00:31:30;2.05;;;1.83;;
39654;SDS011;25336;59.944;11.010;2023-08-31T00:33:56;2.97;;;2.10;;
39654;SDS011;25336;59.944;11.010;2023-08-31T00:36:22;2.05;;;1.60;;
39654;SDS011;25336;59.944;11.010;2023-08-31T00:38:48;2.17;;;1.75;;
39654;SDS011;25336;59.944;11.010;2023-08-31T00:41:14;2.47;;;1.90;;
39654;SDS011;25336;59.944;11.010;2023-08-31T00:43:39;2.55;;;1.98;;
39654;SDS011;25336;59.944;11.010;2023-08-31T00:46:05;2.22;;;1.92;;
39654;SDS011;25336;59.944;11.010;2023-08-31T00:48:31;2.50;;;2.30;;
39654;SDS011;25336;59.944;11.010;2023-08-31T00:50:57;2.92;;;2.00;;
39654;SDS011;25336;59.944;11.010;2023-08-31T00:53:25;2.08;;;1.88;;
39654;SDS011;25336;59.944;11.010;2023-08-31T00:55:51;3.78;;;2.00;;
39654;SDS011;25336;59.944;11.010;2023-08-31T00:58:17;2.92;;;1.77;;
39654;SDS011;25336;59.944;11.010;2023-08-31T01:03:12;2.47;;;2.05;;
39654;SDS011;25336;59.944;11.010;2023-08-31T01:11:22;1.55;;;1.45;;
39654;SDS011;25336;59.944;11.010;2023-08-31T01:14:07;1.70;;;1.60;;
39654;SDS011;25336;59.944;11.010;2023-08-31T01:16:41;7.53;;;1.98;;
39654;SDS011;25336;59.944;11.010;2023-08-31T01:19:16;2.38;;;1.90;;
39654;SDS011;25336;59.944;11.010;2023-08-31T01:21:50;3.05;;;2.28;;
39654;SDS011;25336;59.944;11.010;2023-08-31T01:24:19;4.93;;;2.10;;
39654;SDS011;25336;59.944;11.010;2023-08-31T01:26:46;1.88;;;1.70;;
39654;SDS011;25336;59.944;11.010;2023-08-31T01:29:12;4.00;;;2.20;;
39654;SDS011;25336;59.944;11.010;2023-08-31T01:31:43;3.17;;;1.52;;
39654;SDS011;25336;59.944;11.010;2023-08-31T01:34:10;1.95;;;1.83;;
39654;SDS011;25336;59.944;11.010;2023-08-31T01:36:36;2.15;;;1.95;;
39654;SDS011;25336;59.944;11.010;2023-08-31T01:41:43;2.13;;;1.70;;
39654;SDS011;25336;59.944;11.010;2023-08-31T01:44:28;1.95;;;1.70;;
39654;SDS011;25336;59.944;11.010;2023-08-31T01:47:02;4.93;;;2.45;;
39654;SDS011;25336;59.944;11.010;2023-08-31T01:49:40;2.72;;;2.17;;
39654;SDS011;25336;59.944;11.010;2023-08-31T01:52:08;2.72;;;2.10;;
39654;SDS011;25336;59.944;11.010;2023-08-31T01:54:34;4.30;;;2.08;;
39654;SDS011;25336;59.944;11.010;2023-08-31T01:57:02;4.15;;;2.10;;
39654;SDS011;25336;59.944;11.010;2023-08-31T01:59:28;5.18;;;1.92;;
39654;SDS011;25336;59.944;11.010;2023-08-31T02:01:53;3.17;;;2.30;;
39654;SDS011;25336;59.944;11.010;2023-08-31T02:04:19;1.92;;;1.83;;
39654;SDS011;25336;59.944;11.010;2023-08-31T02:06:45;3.55;;;2.60;;
39654;SDS011;25336;59.944;11.010;2023-08-31T02:09:10;3.53;;;2.38;;
39654;SDS011;25336;59.944;11.010;2023-08-31T02:11:38;2.63;;;1.65;;
39654;SDS011;25336;59.944;11.010;2023-08-31T02:14:04;2.53;;;2.00;;
39654;SDS011;25336;59.944;11.010;2023-08-31T02:16:30;2.63;;;2.17;;
39654;SDS011;25336;59.944;11.010;2023-08-31T02:18:56;3.20;;;2.17;;
39654;SDS011;25336;59.944;11.010;2023-08-31T02:21:22;2.40;;;2.20;;
39654;SDS011;25336;59.944;11.010;2023-08-31T02:23:48;2.35;;;2.10;;
39654;SDS011;25336;59.944;11.010;2023-08-31T02:26:13;4.25;;;2.38;;
39654;SDS011;25336;59.944;11.010;2023-08-31T02:28:39;2.15;;;1.95;;
39654;SDS011;25336;59.944;11.010;2023-08-31T02:31:05;2.63;;;2.15;;
39654;SDS011;25336;59.944;11.010;2023-08-31T02:33:30;2.50;;;2.03;;
39654;SDS011;25336;59.944;11.010;2023-08-31T02:35:56;2.97;;;2.13;;
39654;SDS011;25336;59.944;11.010;2023-08-31T02:38:22;4.88;;;2.15;;
39654;SDS011;25336;59.944;11.010;2023-08-31T02:40:48;2.22;;;2.03;;
39654;SDS011;25336;59.944;11.010;2023-08-31T02:43:14;2.15;;;1.98;;
39654;SDS011;25336;59.944;11.010;2023-08-31T02:45:40;3.45;;;1.88;;
39654;SDS011;25336;59.944;11.010;2023-08-31T02:48:09;2.40;;;1.77;;
39654;SDS011;25336;59.944;11.010;2023-08-31T02:50:35;5.88;;;2.17;;
39654;SDS011;25336;59.944;11.010;2023-08-31T02:53:01;2.70;;;2.10;;
39654;SDS011;25336;59.944;11.010;2023-08-31T02:55:26;2.20;;;2.00;;
39654;SDS011;25336;59.944;11.010;2023-08-31T02:57:52;5.10;;;1.85;;
39654;SDS011;25336;59.944;11.010;2023-08-31T03:00:19;2.40;;;2.20;;
39654;SDS011;25336;59.944;11.010;2023-08-31T03:02:49;3.95;;;2.08;;
39654;SDS011;25336;59.944;11.010;2023-08-31T03:05:18;6.00;;;2.00;;
39654;SDS011;25336;59.944;11.010;2023-08-31T03:07:46;1.83;;;1.73;;
39654;SDS011;25336;59.944;11.010;2023-08-31T03:10:12;11.07;;;2.58;;
39654;SDS011;25336;59.944;11.010;2023-08-31T03:12:37;2.15;;;2.00;;
39654;SDS011;25336;59.944;11.010;2023-08-31T03:15:05;8.88;;;3.17;;
39654;SDS011;25336;59.944;11.010;2023-08-31T03:17:31;6.68;;;2.58;;
39654;SDS011;25336;59.944;11.010;2023-08-31T03:19:57;2.45;;;1.63;;
39654;SDS011;25336;59.944;11.010;2023-08-31T03:22:22;2.33;;;2.13;;
39654;SDS011;25336;59.944;11.010;2023-08-31T03:24:48;2.63;;;1.90;;
39654;SDS011;25336;59.944;11.010;2023-08-31T03:27:14;3.83;;;2.35;;
39654;SDS011;25336;59.944;11.010;2023-08-31T03:29:41;2.70;;;2.05;;
39654;SDS011;25336;59.944;11.010;2023-08-31T03:32:07;4.57;;;2.05;;
39654;SDS011;25336;59.944;11.010;2023-08-31T03:34:32;2.20;;;2.00;;
39654;SDS011;25336;59.944;11.010;2023-08-31T03:37:01;5.15;;;2.20;;
39654;SDS011;25336;59.944;11.010;2023-08-31T03:39:26;4.00;;;1.98;;
39654;SDS011;25336;59.944;11.010;2023-08-31T03:41:52;4.82;;;2.22;;
39654;SDS011;25336;59.944;11.010;2023-08-31T03:44:17;4.65;;;2.50;;
39654;SDS011;25336;59.944;11.010;2023-08-31T03:46:43;8.05;;;2.45;;
39654;SDS011;25336;59.944;11.010;2023-08-31T03:49:09;4.13;;;2.00;;
39654;SDS011;25336;59.944;11.010;2023-08-31T03:51:34;3.03;;;1.85;;
39654;SDS011;25336;59.944;11.010;2023-08-31T03:54:00;4.97;;;2.65;;
39654;SDS011;25336;59.944;11.010;2023-08-31T03:56:26;4.03;;;1.70;;
39654;SDS011;25336;59.944;11.010;2023-08-31T03:58:52;2.22;;;1.95;;
39654;SDS011;25336;59.944;11.010;2023-08-31T04:01:18;2.35;;;1.63;;
39654;SDS011;25336;59.944;11.010;2023-08-31T04:03:43;6.20;;;2.28;;
39654;SDS011;25336;59.944;11.010;2023-08-31T04:06:09;5.28;;;2.35;;
39654;SDS011;25336;59.944;11.010;2023-08-31T04:08:35;3.30;;;2.28;;
39654;SDS011;25336;59.944;11.010;2023-08-31T04:11:00;5.00;;;1.80;;
39654;SDS011;25336;59.944;11.010;2023-08-31T04:13:26;4.50;;;2.00;;
39654;SDS011;25336;59.944;11.010;2023-08-31T04:15:52;2.28;;;2.08;;
39654;SDS011;25336;59.944;11.010;2023-08-31T04:18:18;3.03;;;2.13;;
39654;SDS011;25336;59.944;11.010;2023-08-31T04:20:51;3.08;;;2.08;;
39654;SDS011;25336;59.944;11.010;2023-08-31T04:23:17;3.25;;;1.85;;
39654;SDS011;25336;59.944;11.010;2023-08-31T04:25:46;2.60;;;2.20;;
39654;SDS011;25336;59.944;11.010;2023-08-31T04:28:12;4.70;;;2.08;;
39654;SDS011;25336;59.944;11.010;2023-08-31T04:30:41;2.67;;;2.47;;
39654;SDS011;25336;59.944;11.010;2023-08-31T04:33:07;2.53;;;1.83;;
39654;SDS011;25336;59.944;11.010;2023-08-31T04:35:33;4.90;;;2.10;;
39654;SDS011;25336;59.944;11.010;2023-08-31T04:37:59;4.00;;;1.90;;
39654;SDS011;25336;59.944;11.010;2023-08-31T04:40:25;4.05;;;2.20;;
39654;SDS011;25336;59.944;11.010;2023-08-31T04:42:52;2.00;;;1.80;;
39654;SDS011;25336;59.944;11.010;2023-08-31T04:45:17;2.05;;;1.85;;
39654;SDS011;25336;59.944;11.010;2023-08-31T04:47:43;2.10;;;1.90;;
39654;SDS011;25336;59.944;11.010;2023-08-31T04:50:09;2.75;;;1.92;;
39654;SDS011;25336;59.944;11.010;2023-08-31T04:52:35;3.13;;;2.25;;
39654;SDS011;25336;59.944;11.010;2023-08-31T04:55:01;3.33;;;2.35;;
39654;SDS011;25336;59.944;11.010;2023-08-31T04:57:28;2.60;;;2.40;;
39654;SDS011;25336;59.944;11.010;2023-08-31T04:59:54;5.85;;;2.47;;
39654;SDS011;25336;59.944;11.010;2023-08-31T05:02:20;5.68;;;2.08;;
39654;SDS011;25336;59.944;11.010;2023-08-31T05:04:45;2.92;;;2.38;;
39654;SDS011;25336;59.944;11.010;2023-08-31T05:07:11;2.38;;;2.17;;
39654;SDS011;25336;59.944;11.010;2023-08-31T05:09:37;6.50;;;2.58;;
39654;SDS011;25336;59.944;11.010;2023-08-31T05:12:02;4.75;;;2.70;;
39654;SDS011;25336;59.944;11.010;2023-08-31T05:14:29;2.97;;;2.67;;
39654;SDS011;25336;59.944;11.010;2023-08-31T05:16:55;4.45;;;2.92;;
39654;SDS011;25336;59.944;11.010;2023-08-31T05:19:21;5.78;;;2.85;;
39654;SDS011;25336;59.944;11.010;2023-08-31T05:21:47;7.28;;;6.38;;
39654;SDS011;25336;59.944;11.010;2023-08-31T05:24:12;7.75;;;5.18;;
39654;SDS011;25336;59.944;11.010;2023-08-31T05:26:41;5.47;;;4.10;;
39654;SDS011;25336;59.944;11.010;2023-08-31T05:29:07;5.68;;;4.13;;
39654;SDS011;25336;59.944;11.010;2023-08-31T05:31:32;5.82;;;3.33;;
39654;SDS011;25336;59.944;11.010;2023-08-31T05:33:58;3.25;;;2.95;;
39654;SDS011;25336;59.944;11.010;2023-08-31T05:36:23;4.43;;;3.58;;
39654;SDS011;25336;59.944;11.010;2023-08-31T05:38:50;5.90;;;3.40;;
39654;SDS011;25336;59.944;11.010;2023-08-31T05:41:16;4.50;;;3.15;;
39654;SDS011;25336;59.944;11.010;2023-08-31T05:43:42;9.77;;;3.80;;
39654;SDS011;25336;59.944;11.010;2023-08-31T05:46:08;4.63;;;3.28;;
39654;SDS011;25336;59.944;11.010;2023-08-31T05:48:34;4.65;;;3.35;;
39654;SDS011;25336;59.944;11.010;2023-08-31T05:51:01;11.25;;;3.20;;
39654;SDS011;25336;59.944;11.010;2023-08-31T05:53:28;22.20;;;3.30;;
39654;SDS011;25336;59.944;11.010;2023-08-31T05:55:55;7.03;;;3.10;;
39654;SDS011;25336;59.944;11.010;2023-08-31T05:58:28;9.27;;;3.00;;
39654;SDS011;25336;59.944;11.010;2023-08-31T06:01:01;4.38;;;2.97;;
39654;SDS011;25336;59.944;11.010;2023-08-31T06:03:28;7.60;;;3.05;;
39654;SDS011;25336;59.944;11.010;2023-08-31T06:05:55;7.30;;;2.50;;
39654;SDS011;25336;59.944;11.010;2023-08-31T06:08:21;6.32;;;2.88;;
39654;SDS011;25336;59.944;11.010;2023-08-31T06:10:47;3.15;;;2.88;;
39654;SDS011;25336;59.944;11.010;2023-08-31T06:13:12;3.33;;;2.80;;
39654;SDS011;25336;59.944;11.010;2023-08-31T06:15:38;6.28;;;3.25;;
39654;SDS011;25336;59.944;11.010;2023-08-31T06:18:04;4.05;;;2.67;;
39654;SDS011;25336;59.944;11.010;2023-08-31T06:20:30;6.72;;;2.60;;
39654;SDS011;25336;59.944;11.010;2023-08-31T06:22:56;5.07;;;3.30;;
39654;SDS011;25336;59.944;11.010;2023-08-31T06:25:22;9.88;;;3.10;;
39654;SDS011;25336;59.944;11.010;2023-08-31T06:27:48;9.13;;;2.90;;
39654;SDS011;25336;59.944;11.010;2023-08-31T06:30:13;26.38;;;3.35;;
39654;SDS011;25336;59.944;11.010;2023-08-31T06:32:42;27.10;;;3.58;;
39654;SDS011;25336;59.944;11.010;2023-08-31T06:35:09;13.77;;;3.28;;
39654;SDS011;25336;59.944;11.010;2023-08-31T06:37:38;35.13;;;4.47;;
39654;SDS011;25336;59.944;11.010;2023-08-31T06:40:05;3.45;;;2.95;;
39654;SDS011;25336;59.944;11.010;2023-08-31T06:42:33;3.85;;;3.45;;
39654;SDS011;25336;59.944;11.010;2023-08-31T06:44:59;3.65;;;2.83;;
39654;SDS011;25336;59.944;11.010;2023-08-31T06:47:25;4.22;;;2.97;;
39654;SDS011;25336;59.944;11.010;2023-08-31T06:49:50;11.68;;;3.20;;
39654;SDS011;25336;59.944;11.010;2023-08-31T06:52:16;6.60;;;3.22;;
39654;SDS011;25336;59.944;11.010;2023-08-31T06:54:42;3.95;;;2.97;;
39654;SDS011;25336;59.944;11.010;2023-08-31T06:57:08;6.85;;;2.95;;
39654;SDS011;25336;59.944;11.010;2023-08-31T06:59:33;3.30;;;3.00;;
39654;SDS011;25336;59.944;11.010;2023-08-31T07:01:59;7.15;;;3.45;;
39654;SDS011;25336;59.944;11.010;2023-08-31T07:04:26;4.70;;;4.20;;
39654;SDS011;25336;59.944;11.010;2023-08-31T07:06:52;10.38;;;3.17;;
39654;SDS011;25336;59.944;11.010;2023-08-31T07:09:18;3.70;;;2.90;;
39654;SDS011;25336;59.944;11.010;2023-08-31T07:11:43;4.85;;;3.38;;
39654;SDS011;25336;59.944;11.010;2023-08-31T07:14:09;3.38;;;2.80;;
39654;SDS011;25336;59.944;11.010;2023-08-31T07:16:35;2.90;;;2.60;;
39654;SDS011;25336;59.944;11.010;2023-08-31T07:19:01;5.43;;;4.20;;
39654;SDS011;25336;59.944;11.010;2023-08-31T07:21:27;6.45;;;3.72;;
39654;SDS011;25336;59.944;11.010;2023-08-31T07:23:53;4.43;;;3.50;;
39654;SDS011;25336;59.944;11.010;2023-08-31T07:26:19;3.80;;;3.42;;
39654;SDS011;25336;59.944;11.010;2023-08-31T07:28:46;5.47;;;4.03;;
39654;SDS011;25336;59.944;11.010;2023-08-31T07:31:12;5.05;;;3.53;;
39654;SDS011;25336;59.944;11.010;2023-08-31T07:33:38;3.70;;;3.30;;
39654;SDS011;25336;59.944;11.010;2023-08-31T07:36:04;3.80;;;3.42;;
39654;SDS011;25336;59.944;11.010;2023-08-31T07:38:30;8.15;;;3.92;;
39654;SDS011;25336;59.944;11.010;2023-08-31T07:40:57;8.55;;;3.95;;
39654;SDS011;25336;59.944;11.010;2023-08-31T07:43:22;4.80;;;4.25;;
39654;SDS011;25336;59.944;11.010;2023-08-31T07:45:48;4.10;;;3.55;;
39654;SDS011;25336;59.944;11.010;2023-08-31T07:48:14;3.80;;;3.50;;
39654;SDS011;25336;59.944;11.010;2023-08-31T07:50:40;5.75;;;3.65;;
39654;SDS011;25336;59.944;11.010;2023-08-31T07:53:07;3.63;;;3.33;;
39654;SDS011;25336;59.944;11.010;2023-08-31T07:55:33;4.05;;;3.20;;
39654;SDS011;25336;59.944;11.010;2023-08-31T07:57:58;6.80;;;4.00;;
39654;SDS011;25336;59.944;11.010;2023-08-31T08:00:24;6.82;;;4.68;;
39654;SDS011;25336;59.944;11.010;2023-08-31T08:02:49;4.90;;;4.10;;
39654;SDS011;25336;59.944;11.010;2023-08-31T08:05:15;4.85;;;4.38;;
39654;SDS011;25336;59.944;11.010;2023-08-31T08:07:41;6.35;;;3.80;;
39654;SDS011;25336;59.944;11.010;2023-08-31T08:10:07;4.80;;;3.75;;
39654;SDS011;25336;59.944;11.010;2023-08-31T08:12:40;4.32;;;3.40;;
39654;SDS011;25336;59.944;11.010;2023-08-31T08:15:10;5.85;;;3.55;;
39654;SDS011;25336;59.944;11.010;2023-08-31T08:17:36;5.43;;;3.15;;
39654;SDS011;25336;59.944;11.010;2023-08-31T08:20:02;4.28;;;3.47;;
39654;SDS011;25336;59.944;11.010;2023-08-31T08:22:28;6.32;;;3.17;;
39654;SDS011;25336;59.944;11.010;2023-08-31T08:24:54;5.53;;;2.95;;
39654;SDS011;25336;59.944;11.010;2023-08-31T08:27:20;5.50;;;3.13;;
39654;SDS011;25336;59.944;11.010;2023-08-31T08:29:45;2.78;;;2.58;;
39654;SDS011;25336;59.944;11.010;2023-08-31T08:32:12;4.28;;;2.80;;
39654;SDS011;25336;59.944;11.010;2023-08-31T08:34:38;3.75;;;3.20;;
39654;SDS011;25336;59.944;11.010;2023-08-31T08:37:03;3.28;;;2.85;;
39654;SDS011;25336;59.944;11.010;2023-08-31T08:39:29;2.60;;;2.10;;
39654;SDS011;25336;59.944;11.010;2023-08-31T08:41:57;4.05;;;2.35;;
39654;SDS011;25336;59.944;11.010;2023-08-31T08:44:25;3.80;;;2.58;;
39654;SDS011;25336;59.944;11.010;2023-08-31T08:46:51;2.70;;;2.50;;
39654;SDS011;25336;59.944;11.010;2023-08-31T08:49:20;2.50;;;2.30;;
39654;SDS011;25336;59.944;11.010;2023-08-31T08:51:48;2.53;;;2.28;;
39654;SDS011;25336;59.944;11.010;2023-08-31T08:54:16;2.42;;;2.22;;
39654;SDS011;25336;59.944;11.010;2023-08-31T08:56:43;2.92;;;2.20;;
39654;SDS011;25336;59.944;11.010;2023-08-31T08:59:08;5.32;;;2.75;;
39654;SDS011;25336;59.944;11.010;2023-08-31T09:01:38;3.72;;;2.38;;
39654;SDS011;25336;59.944;11.010;2023-08-31T09:04:04;2.85;;;2.47;;
39654;SDS011;25336;59.944;11.010;2023-08-31T09:06:31;2.80;;;2.50;;
39654;SDS011;25336;59.944;11.010;2023-08-31T09:08:57;3.38;;;2.20;;
39654;SDS011;25336;59.944;11.010;2023-08-31T09:11:23;4.57;;;2.58;;
39654;SDS011;25336;59.944;11.010;2023-08-31T09:13:50;3.28;;;2.28;;
39654;SDS011;25336;59.944;11.010;2023-08-31T09:16:26;3.67;;;2.53;;
39654;SDS011;25336;59.944;11.010;2023-08-31T09:18:53;7.43;;;2.70;;
39654;SDS011;25336;59.944;11.010;2023-08-31T09:21:44;3.85;;;2.70;;
39654;SDS011;25336;59.944;11.010;2023-08-31T09:24:11;2.50;;;2.30;;
39654;SDS011;25336;59.944;11.010;2023-08-31T09:26:38;4.75;;;2.83;;
39654;SDS011;25336;59.944;11.010;2023-08-31T09:29:13;4.93;;;3.00;;
39654;SDS011;25336;59.944;11.010;2023-08-31T09:31:43;4.43;;;2.83;;
39654;SDS011;25336;59.944;11.010;2023-08-31T09:34:10;6.07;;;2.95;;
39654;SDS011;25336;59.944;11.010;2023-08-31T09:36:36;3.80;;;2.88;;
39654;SDS011;25336;59.944;11.010;2023-08-31T09:39:03;2.80;;;2.60;;
39654;SDS011;25336;59.944;11.010;2023-08-31T09:41:30;4.13;;;2.75;;
39654;SDS011;25336;59.944;11.010;2023-08-31T09:43:56;8.63;;;2.30;;
39654;SDS011;25336;59.944;11.010;2023-08-31T09:46:39;9.50;;;2.97;;
39654;SDS011;25336;59.944;11.010;2023-08-31T09:49:05;4.53;;;2.85;;
39654;SDS011;25336;59.944;11.010;2023-08-31T09:51:31;2.72;;;2.10;;
39654;SDS011;25336;59.944;11.010;2023-08-31T09:53:58;8.77;;;2.17;;
39654;SDS011;25336;59.944;11.010;2023-08-31T09:56:26;3.08;;;2.08;;
39654;SDS011;25336;59.944;11.010;2023-08-31T09:58:55;2.65;;;2.17;;
39654;SDS011;25336;59.944;11.010;2023-08-31T10:01:21;4.65;;;2.90;;
39654;SDS011;25336;59.944;11.010;2023-08-31T10:03:47;2.60;;;1.92;;
39654;SDS011;25336;59.944;11.010;2023-08-31T10:06:12;2.05;;;1.85;;
39654;SDS011;25336;59.944;11.010;2023-08-31T10:08:39;2.38;;;1.90;;
39654;SDS011;25336;59.944;11.010;2023-08-31T10:11:05;2.85;;;2.00;;
39654;SDS011;25336;59.944;11.010;2023-08-31T10:13:35;3.10;;;2.00;;
39654;SDS011;25336;59.944;11.010;2023-08-31T10:16:04;3.00;;;1.88;;
39654;SDS011;25336;59.944;11.010;2023-08-31T10:18:30;2.70;;;1.98;;
39654;SDS011;25336;59.944;11.010;2023-08-31T10:20:57;2.10;;;1.90;;
39654;SDS011;25336;59.944;11.010;2023-08-31T10:23:22;1.73;;;1.63;;
39654;SDS011;25336;59.944;11.010;2023-08-31T10:28:19;1.45;;;1.27;;
39654;SDS011;25336;59.944;11.010;2023-08-31T10:33:43;2.17;;;1.67;;
39654;SDS011;25336;59.944;11.010;2023-08-31T10:36:13;2.50;;;1.55;;
39654;SDS011;25336;59.944;11.010;2023-08-31T10:38:41;4.15;;;1.67;;
39654;SDS011;25336;59.944;11.010;2023-08-31T10:43:48;4.53;;;1.60;;
39654;SDS011;25336;59.944;11.010;2023-08-31T10:46:20;2.45;;;1.42;;
39654;SDS011;25336;59.944;11.010;2023-08-31T10:48:53;2.42;;;1.42;;
39654;SDS011;25336;59.944;11.010;2023-08-31T10:51:32;2.50;;;1.60;;
39654;SDS011;25336;59.944;11.010;2023-08-31T10:54:11;2.03;;;1.60;;
39654;SDS011;25336;59.944;11.010;2023-08-31T10:56:53;3.13;;;1.45;;
39654;SDS011;25336;59.944;11.010;2023-08-31T10:59:19;5.38;;;1.63;;
39654;SDS011;25336;59.944;11.010;2023-08-31T11:01:53;2.58;;;1.42;;
39654;SDS011;25336;59.944;11.010;2023-08-31T11:04:29;4.25;;;1.58;;
39654;SDS011;25336;59.944;11.010;2023-08-31T11:07:15;2.00;;;1.70;;
39654;SDS011;25336;59.944;11.010;2023-08-31T11:09:42;3.13;;;1.58;;
39654;SDS011;25336;59.944;11.010;2023-08-31T11:12:09;2.15;;;1.48;;
39654;SDS011;25336;59.944;11.010;2023-08-31T11:14:35;2.17;;;1.50;;
39654;SDS011;25336;59.944;11.010;2023-08-31T11:17:02;2.50;;;1.45;;
39654;SDS011;25336;59.944;11.010;2023-08-31T11:19:30;1.55;;;1.33;;
39654;SDS011;25336;59.944;11.010;2023-08-31T11:21:56;3.25;;;1.40;;
39654;SDS011;25336;59.944;11.010;2023-08-31T11:24:22;1.40;;;1.20;;
39654;SDS011;25336;59.944;11.010;2023-08-31T11:26:52;1.52;;;1.27;;
39654;SDS011;25336;59.944;11.010;2023-08-31T11:29:18;1.55;;;1.30;;
39654;SDS011;25336;59.944;11.010;2023-08-31T11:31:44;1.40;;;1.25;;
39654;SDS011;25336;59.944;11.010;2023-08-31T11:34:13;1.38;;;1.20;;
39654;SDS011;25336;59.944;11.010;2023-08-31T11:36:43;1.58;;;1.48;;
39654;SDS011;25336;59.944;11.010;2023-08-31T11:39:11;3.15;;;1.27;;
39654;SDS011;25336;59.944;11.010;2023-08-31T11:41:39;2.13;;;1.15;;
39654;SDS011;25336;59.944;11.010;2023-08-31T11:44:11;4.68;;;1.20;;
39654;SDS011;25336;59.944;11.010;2023-08-31T11:46:39;1.55;;;1.30;;
39654;SDS011;25336;59.944;11.010;2023-08-31T11:49:06;1.80;;;1.15;;
39654;SDS011;25336;59.944;11.010;2023-08-31T11:51:33;1.58;;;1.25;;
39654;SDS011;25336;59.944;11.010;2023-08-31T11:54:00;1.77;;;1.20;;
39654;SDS011;25336;59.944;11.010;2023-08-31T11:56:38;2.13;;;1.52;;
39654;SDS011;25336;59.944;11.010;2023-08-31T11:59:07;3.28;;;1.27;;
39654;SDS011;25336;59.944;11.010;2023-08-31T12:01:37;1.40;;;1.20;;
39654;SDS011;25336;59.944;11.010;2023-08-31T12:04:09;1.73;;;1.45;;
39654;SDS011;25336;59.944;11.010;2023-08-31T12:06:35;1.77;;;1.20;;
39654;SDS011;25336;59.944;11.010;2023-08-31T12:09:01;1.40;;;1.30;;
39654;SDS011;25336;59.944;11.010;2023-08-31T12:11:29;2.05;;;1.40;;
39654;SDS011;25336;59.944;11.010;2023-08-31T12:13:55;8.05;;;1.65;;
39654;SDS011;25336;59.944;11.010;2023-08-31T12:16:31;2.00;;;1.48;;
39654;SDS011;25336;59.944;11.010;2023-08-31T12:19:04;3.30;;;1.15;;
39654;SDS011;25336;59.944;11.010;2023-08-31T12:21:30;1.20;;;1.10;;
39654;SDS011;25336;59.944;11.010;2023-08-31T12:23:57;1.90;;;1.50;;
39654;SDS011;25336;59.944;11.010;2023-08-31T12:26:23;4.10;;;1.55;;
39654;SDS011;25336;59.944;11.010;2023-08-31T12:28:49;18.13;;;2.70;;
39654;SDS011;25336;59.944;11.010;2023-08-31T12:31:15;5.63;;;1.45;;
39654;SDS011;25336;59.944;11.010;2023-08-31T12:33:40;2.53;;;1.35;;
39654;SDS011;25336;59.944;11.010;2023-08-31T12:36:07;4.65;;;1.70;;
39654;SDS011;25336;59.944;11.010;2023-08-31T12:38:32;1.83;;;1.30;;
39654;SDS011;25336;59.944;11.010;2023-08-31T12:40:58;1.80;;;1.45;;
39654;SDS011;25336;59.944;11.010;2023-08-31T12:43:24;1.77;;;1.65;;
39654;SDS011;25336;59.944;11.010;2023-08-31T12:45:49;1.90;;;1.52;;
39654;SDS011;25336;59.944;11.010;2023-08-31T12:48:15;1.58;;;1.33;;
39654;SDS011;25336;59.944;11.010;2023-08-31T12:50:41;1.73;;;1.40;;
39654;SDS011;25336;59.944;11.010;2023-08-31T12:53:06;1.50;;;1.40;;
39654;SDS011;25336;59.944;11.010;2023-08-31T12:55:32;3.70;;;1.50;;
39654;SDS011;25336;59.944;11.010;2023-08-31T12:57:58;1.60;;;1.30;;
39654;SDS011;25336;59.944;11.010;2023-08-31T13:00:23;1.65;;;1.40;;
39654;SDS011;25336;59.944;11.010;2023-08-31T13:02:49;1.35;;;1.25;;
39654;SDS011;25336;59.944;11.010;2023-08-31T13:05:16;2.17;;;1.75;;
39654;SDS011;25336;59.944;11.010;2023-08-31T13:07:42;1.95;;;1.42;;
39654;SDS011;25336;59.944;11.010;2023-08-31T13:10:07;2.20;;;2.03;;
39654;SDS011;25336;59.944;11.010;2023-08-31T13:12:33;3.60;;;1.52;;
39654;SDS011;25336;59.944;11.010;2023-08-31T13:14:59;2.30;;;1.60;;
39654;SDS011;25336;59.944;11.010;2023-08-31T13:17:25;4.93;;;1.90;;
39654;SDS011;25336;59.944;11.010;2023-08-31T13:19:54;2.22;;;1.70;;
39654;SDS011;25336;59.944;11.010;2023-08-31T13:22:22;1.50;;;1.40;;
39654;SDS011;25336;59.944;11.010;2023-08-31T13:24:48;2.45;;;1.80;;
39654;SDS011;25336;59.944;11.010;2023-08-31T13:27:14;3.05;;;1.92;;
39654;SDS011;25336;59.944;11.010;2023-08-31T13:29:41;2.33;;;1.45;;
39654;SDS011;25336;59.944;11.010;2023-08-31T13:32:07;1.92;;;1.50;;
39654;SDS011;25336;59.944;11.010;2023-08-31T13:34:33;1.65;;;1.42;;
39654;SDS011;25336;59.944;11.010;2023-08-31T13:36:59;1.85;;;1.40;;
39654;SDS011;25336;59.944;11.010;2023-08-31T13:39:28;2.35;;;1.83;;
39654;SDS011;25336;59.944;11.010;2023-08-31T13:41:54;2.00;;;1.77;;
39654;SDS011;25336;59.944;11.010;2023-08-31T13:44:20;1.55;;;1.45;;
39654;SDS011;25336;59.944;11.010;2023-08-31T13:46:46;2.25;;;1.80;;
39654;SDS011;25336;59.944;11.010;2023-08-31T13:49:12;2.47;;;1.38;;
39654;SDS011;25336;59.944;11.010;2023-08-31T13:51:38;1.73;;;1.50;;
39654;SDS011;25336;59.944;11.010;2023-08-31T13:54:04;1.92;;;1.20;;
39654;SDS011;25336;59.944;11.010;2023-08-31T13:56:31;1.92;;;1.70;;
39654;SDS011;25336;59.944;11.010;2023-08-31T13:58:57;3.55;;;1.50;;
39654;SDS011;25336;59.944;11.010;2023-08-31T14:01:23;1.85;;;1.30;;
39654;SDS011;25336;59.944;11.010;2023-08-31T14:03:50;1.88;;;1.27;;
39654;SDS011;25336;59.944;11.010;2023-08-31T14:06:15;1.52;;;1.42;;
39654;SDS011;25336;59.944;11.010;2023-08-31T14:08:41;2.20;;;1.83;;
39654;SDS011;25336;59.944;11.010;2023-08-31T14:11:07;1.80;;;1.67;;
39654;SDS011;25336;59.944;11.010;2023-08-31T14:13:32;1.77;;;1.55;;
39654;SDS011;25336;59.944;11.010;2023-08-31T14:15:59;2.42;;;1.27;;
39654;SDS011;25336;59.944;11.010;2023-08-31T14:18:26;1.95;;;1.73;;
39654;SDS011;25336;59.944;11.010;2023-08-31T14:20:54;1.92;;;1.80;;
39654;SDS011;25336;59.944;11.010;2023-08-31T14:23:20;1.75;;;1.52;;
39654;SDS011;25336;59.944;11.010;2023-08-31T14:25:45;8.40;;;1.65;;
39654;SDS011;25336;59.944;11.010;2023-08-31T14:28:11;1.65;;;1.48;;
39654;SDS011;25336;59.944;11.010;2023-08-31T14:30:37;2.47;;;2.00;;
39654;SDS011;25336;59.944;11.010;2023-08-31T14:33:03;2.05;;;1.50;;
39654;SDS011;25336;59.944;11.010;2023-08-31T14:35:29;1.75;;;1.45;;
39654;SDS011;25336;59.944;11.010;2023-08-31T14:37:55;1.42;;;1.23;;
39654;SDS011;25336;59.944;11.010;2023-08-31T14:40:21;2.90;;;1.60;;
39654;SDS011;25336;59.944;11.010;2023-08-31T14:42:47;1.95;;;1.60;;
39654;SDS011;25336;59.944;11.010;2023-08-31T14:45:13;5.32;;;1.85;;
39654;SDS011;25336;59.944;11.010;2023-08-31T14:47:38;1.40;;;1.30;;
39654;SDS011;25336;59.944;11.010;2023-08-31T14:50:04;4.05;;;1.90;;
39654;SDS011;25336;59.944;11.010;2023-08-31T14:52:30;1.60;;;1.50;;